sensor_id;sensor_type;location;lat;lon;timestamp;temperature;humidity
37956;DHT22;23776;51.592;7.180;2022-09-06T00:00:59;21.40;99.90
37956;DHT22;23776;51.592;7.180;2022-09-06T00:03:25;21.40;99.90
37956;DHT22;23776;51.592;7.180;2022-09-06T00:05:53;21.30;99.90
37956;DHT22;23776;51.592;7.180;2022-09-06T00:08:19;22.70;99.90
37956;DHT22;23776;51.592;7.180;2022-09-06T00:10:45;21.30;99.90
37956;DHT22;23776;51.592;7.180;2022-09-06T00:13:11;21.20;99.90
37956;DHT22;23776;51.592;7.180;2022-09-06T00:15:37;21.30;99.90
37956;DHT22;23776;51.592;7.180;2022-09-06T00:18:05;21.20;99.90
37956;DHT22;23776;51.592;7.180;2022-09-06T00:20:32;21.30;1.00
37956;DHT22;23776;51.592;7.180;2022-09-06T00:23:03;21.30;1.00
37956;DHT22;23776;51.592;7.180;2022-09-06T00:25:29;21.30;1.00
37956;DHT22;23776;51.592;7.180;2022-09-06T00:27:56;21.30;1.00
37956;DHT22;23776;51.592;7.180;2022-09-06T00:30:22;21.20;1.00
37956;DHT22;23776;51.592;7.180;2022-09-06T00:32:48;21.10;1.00
37956;DHT22;23776;51.592;7.180;2022-09-06T00:35:15;21.10;1.00
37956;DHT22;23776;51.592;7.180;2022-09-06T00:37:40;21.10;1.00
37956;DHT22;23776;51.592;7.180;2022-09-06T00:40:06;21.10;1.00
37956;DHT22;23776;51.592;7.180;2022-09-06T00:42:32;21.10;1.00
37956;DHT22;23776;51.592;7.180;2022-09-06T00:44:58;21.10;1.00
37956;DHT22;23776;51.592;7.180;2022-09-06T00:47:24;21.10;1.00
37956;DHT22;23776;51.592;7.180;2022-09-06T00:49:52;21.10;1.00
37956;DHT22;23776;51.592;7.180;2022-09-06T00:52:19;21.00;1.00
37956;DHT22;23776;51.592;7.180;2022-09-06T00:54:47;21.00;1.00
37956;DHT22;23776;51.592;7.180;2022-09-06T00:57:15;21.00;1.00
37956;DHT22;23776;51.592;7.180;2022-09-06T00:59:42;21.00;1.00
37956;DHT22;23776;51.592;7.180;2022-09-06T01:02:08;21.00;1.00
37956;DHT22;23776;51.592;7.180;2022-09-06T01:04:36;21.00;69.70
37956;DHT22;23776;51.592;7.180;2022-09-06T01:07:16;20.90;47.10
37956;DHT22;23776;51.592;7.180;2022-09-06T01:15:13;20.90;73.80
37956;DHT22;23776;51.592;7.180;2022-09-06T01:28:57;20.40;1.00
37956;DHT22;23776;51.592;7.180;2022-09-06T01:31:34;20.40;99.90
37956;DHT22;23776;51.592;7.180;2022-09-06T01:39:28;20.40;99.90
37956;DHT22;23776;51.592;7.180;2022-09-06T01:41:56;20.40;99.90
37956;DHT22;23776;51.592;7.180;2022-09-06T01:44:24;20.40;99.90
37956;DHT22;23776;51.592;7.180;2022-09-06T01:52:15;20.30;99.90
37956;DHT22;23776;51.592;7.180;2022-09-06T02:00:11;20.10;99.90
37956;DHT22;23776;51.592;7.180;2022-09-06T02:03:28;20.10;99.90
37956;DHT22;23776;51.592;7.180;2022-09-06T02:06:09;20.00;99.90
37956;DHT22;23776;51.592;7.180;2022-09-06T02:09:09;19.90;99.90
37956;DHT22;23776;51.592;7.180;2022-09-06T02:11:47;19.90;99.90
37956;DHT22;23776;51.592;7.180;2022-09-06T02:14:19;20.00;99.90
37956;DHT22;23776;51.592;7.180;2022-09-06T02:16:48;20.00;99.90
37956;DHT22;23776;51.592;7.180;2022-09-06T02:19:23;20.10;99.90
37956;DHT22;23776;51.592;7.180;2022-09-06T02:21:53;20.10;99.90
37956;DHT22;23776;51.592;7.180;2022-09-06T02:24:27;20.10;99.90
37956;DHT22;23776;51.592;7.180;2022-09-06T02:26:54;20.20;99.90
37956;DHT22;23776;51.592;7.180;2022-09-06T02:29:20;20.10;99.90
37956;DHT22;23776;51.592;7.180;2022-09-06T02:32:10;20.10;99.90
37956;DHT22;23776;51.592;7.180;2022-09-06T02:34:37;20.20;99.90
37956;DHT22;23776;51.592;7.180;2022-09-06T02:37:07;20.10;99.90
37956;DHT22;23776;51.592;7.180;2022-09-06T02:39:34;20.20;99.90
37956;DHT22;23776;51.592;7.180;2022-09-06T02:42:00;20.30;99.90
37956;DHT22;23776;51.592;7.180;2022-09-06T02:44:26;20.30;99.90
37956;DHT22;23776;51.592;7.180;2022-09-06T02:46:52;20.30;99.90
37956;DHT22;23776;51.592;7.180;2022-09-06T02:49:17;20.40;99.90
37956;DHT22;23776;51.592;7.180;2022-09-06T02:51:43;20.40;99.90
37956;DHT22;23776;51.592;7.180;2022-09-06T02:54:08;20.40;1.00
37956;DHT22;23776;51.592;7.180;2022-09-06T02:56:34;20.40;80.00
37956;DHT22;23776;51.592;7.180;2022-09-06T02:59:01;20.30;64.40
37956;DHT22;23776;51.592;7.180;2022-09-06T03:01:30;20.20;99.90
37956;DHT22;23776;51.592;7.180;2022-09-06T03:03:56;20.20;99.90
37956;DHT22;23776;51.592;7.180;2022-09-06T03:06:22;20.20;99.90
37956;DHT22;23776;51.592;7.180;2022-09-06T03:08:47;20.10;8.00
37956;DHT22;23776;51.592;7.180;2022-09-06T03:11:13;20.00;99.90
37956;DHT22;23776;51.592;7.180;2022-09-06T03:13:39;19.90;99.90
37956;DHT22;23776;51.592;7.180;2022-09-06T03:16:04;19.80;99.90
37956;DHT22;23776;51.592;7.180;2022-09-06T03:18:30;19.70;28.90
37956;DHT22;23776;51.592;7.180;2022-09-06T03:20:56;19.60;11.10
37956;DHT22;23776;51.592;7.180;2022-09-06T03:23:24;19.60;99.90
37956;DHT22;23776;51.592;7.180;2022-09-06T03:25:50;19.60;1.00
37956;DHT22;23776;51.592;7.180;2022-09-06T03:28:17;19.60;1.00
37956;DHT22;23776;51.592;7.180;2022-09-06T03:30:47;19.60;99.90
37956;DHT22;23776;51.592;7.180;2022-09-06T03:33:13;19.60;99.90
37956;DHT22;23776;51.592;7.180;2022-09-06T03:35:39;19.60;99.90
37956;DHT22;23776;51.592;7.180;2022-09-06T03:38:06;19.60;99.90
37956;DHT22;23776;51.592;7.180;2022-09-06T03:40:31;19.60;99.90
37956;DHT22;23776;51.592;7.180;2022-09-06T03:42:57;19.70;99.90
37956;DHT22;23776;51.592;7.180;2022-09-06T03:45:23;19.70;99.90
37956;DHT22;23776;51.592;7.180;2022-09-06T03:47:48;19.70;1.00
37956;DHT22;23776;51.592;7.180;2022-09-06T03:50:14;19.70;6.30
37956;DHT22;23776;51.592;7.180;2022-09-06T03:52:40;19.80;1.00
37956;DHT22;23776;51.592;7.180;2022-09-06T03:55:06;19.80;99.90
37956;DHT22;23776;51.592;7.180;2022-09-06T03:57:32;19.80;99.90
37956;DHT22;23776;51.592;7.180;2022-09-06T03:59:58;19.90;42.50
37956;DHT22;23776;51.592;7.180;2022-09-06T04:02:24;19.80;10.70
37956;DHT22;23776;51.592;7.180;2022-09-06T04:04:50;19.80;52.60
37956;DHT22;23776;51.592;7.180;2022-09-06T04:07:20;19.70;1.00
37956;DHT22;23776;51.592;7.180;2022-09-06T04:09:46;19.50;1.00
37956;DHT22;23776;51.592;7.180;2022-09-06T04:12:12;19.20;1.00
37956;DHT22;23776;51.592;7.180;2022-09-06T04:14:37;19.00;1.00
37956;DHT22;23776;51.592;7.180;2022-09-06T04:17:03;19.00;17.40
37956;DHT22;23776;51.592;7.180;2022-09-06T04:19:28;19.00;32.80
37956;DHT22;23776;51.592;7.180;2022-09-06T04:21:54;18.90;39.50
37956;DHT22;23776;51.592;7.180;2022-09-06T04:24:19;18.80;47.90
37956;DHT22;23776;51.592;7.180;2022-09-06T04:26:45;18.80;48.00
37956;DHT22;23776;51.592;7.180;2022-09-06T04:29:11;18.50;50.40
37956;DHT22;23776;51.592;7.180;2022-09-06T04:31:36;18.40;54.30
37956;DHT22;23776;51.592;7.180;2022-09-06T04:34:02;18.50;61.90
37956;DHT22;23776;51.592;7.180;2022-09-06T04:36:28;18.50;65.20
37956;DHT22;23776;51.592;7.180;2022-09-06T04:38:54;18.50;66.60
37956;DHT22;23776;51.592;7.180;2022-09-06T04:41:20;18.50;69.00
37956;DHT22;23776;51.592;7.180;2022-09-06T04:43:46;18.60;71.40
37956;DHT22;23776;51.592;7.180;2022-09-06T04:46:24;18.60;72.40
37956;DHT22;23776;51.592;7.180;2022-09-06T04:48:51;18.60;74.00
37956;DHT22;23776;51.592;7.180;2022-09-06T04:51:17;18.70;74.40
37956;DHT22;23776;51.592;7.180;2022-09-06T04:53:44;18.60;75.50
37956;DHT22;23776;51.592;7.180;2022-09-06T04:56:19;18.60;76.30
37956;DHT22;23776;51.592;7.180;2022-09-06T04:58:46;18.60;76.00
37956;DHT22;23776;51.592;7.180;2022-09-06T05:01:12;18.60;76.00
37956;DHT22;23776;51.592;7.180;2022-09-06T05:03:38;18.60;76.30
37956;DHT22;23776;51.592;7.180;2022-09-06T05:08:36;18.70;80.00
37956;DHT22;23776;51.592;7.180;2022-09-06T05:11:02;18.70;79.70
37956;DHT22;23776;51.592;7.180;2022-09-06T05:13:27;18.70;80.90
37956;DHT22;23776;51.592;7.180;2022-09-06T05:15:53;18.80;81.70
37956;DHT22;23776;51.592;7.180;2022-09-06T05:18:19;18.80;82.60
37956;DHT22;23776;51.592;7.180;2022-09-06T05:20:50;18.80;82.70
37956;DHT22;23776;51.592;7.180;2022-09-06T05:23:16;18.80;83.00
37956;DHT22;23776;51.592;7.180;2022-09-06T05:25:42;18.80;81.80
37956;DHT22;23776;51.592;7.180;2022-09-06T05:28:07;18.80;82.00
37956;DHT22;23776;51.592;7.180;2022-09-06T05:30:33;18.80;81.70
37956;DHT22;23776;51.592;7.180;2022-09-06T05:32:59;18.70;81.70
37956;DHT22;23776;51.592;7.180;2022-09-06T05:35:24;18.80;83.00
37956;DHT22;23776;51.592;7.180;2022-09-06T05:37:50;18.80;81.20
37956;DHT22;23776;51.592;7.180;2022-09-06T05:40:15;18.80;82.30
37956;DHT22;23776;51.592;7.180;2022-09-06T05:42:41;18.80;80.50
37956;DHT22;23776;51.592;7.180;2022-09-06T05:45:07;18.70;77.70
37956;DHT22;23776;51.592;7.180;2022-09-06T05:47:33;18.70;78.00
37956;DHT22;23776;51.592;7.180;2022-09-06T05:50:00;18.70;78.20
37956;DHT22;23776;51.592;7.180;2022-09-06T05:52:27;18.70;75.90
37956;DHT22;23776;51.592;7.180;2022-09-06T05:54:53;18.60;68.00
37956;DHT22;23776;51.592;7.180;2022-09-06T05:57:19;18.70;70.50
37956;DHT22;23776;51.592;7.180;2022-09-06T05:59:44;18.70;60.90
37956;DHT22;23776;51.592;7.180;2022-09-06T06:02:10;18.70;48.50
37956;DHT22;23776;51.592;7.180;2022-09-06T06:04:35;18.70;50.10
37956;DHT22;23776;51.592;7.180;2022-09-06T06:07:01;18.70;44.10
37956;DHT22;23776;51.592;7.180;2022-09-06T06:09:27;18.70;45.70
37956;DHT22;23776;51.592;7.180;2022-09-06T06:11:52;18.70;48.70
37956;DHT22;23776;51.592;7.180;2022-09-06T06:14:18;18.70;51.60
37956;DHT22;23776;51.592;7.180;2022-09-06T06:16:44;18.70;51.60
37956;DHT22;23776;51.592;7.180;2022-09-06T06:19:09;18.60;52.40
37956;DHT22;23776;51.592;7.180;2022-09-06T06:21:35;18.60;58.90
37956;DHT22;23776;51.592;7.180;2022-09-06T06:24:03;18.60;63.50
37956;DHT22;23776;51.592;7.180;2022-09-06T06:26:31;18.60;64.40
37956;DHT22;23776;51.592;7.180;2022-09-06T06:28:57;18.70;68.50
37956;DHT22;23776;51.592;7.180;2022-09-06T06:31:29;18.90;74.30
37956;DHT22;23776;51.592;7.180;2022-09-06T06:33:55;18.90;72.60
37956;DHT22;23776;51.592;7.180;2022-09-06T06:36:23;19.00;71.90
37956;DHT22;23776;51.592;7.180;2022-09-06T06:38:52;19.10;71.70
37956;DHT22;23776;51.592;7.180;2022-09-06T06:41:20;19.10;72.00
37956;DHT22;23776;51.592;7.180;2022-09-06T06:43:50;19.10;72.60
37956;DHT22;23776;51.592;7.180;2022-09-06T06:46:17;19.20;73.30
37956;DHT22;23776;51.592;7.180;2022-09-06T06:48:44;19.20;72.30
37956;DHT22;23776;51.592;7.180;2022-09-06T06:51:12;19.20;71.40
37956;DHT22;23776;51.592;7.180;2022-09-06T06:53:38;19.20;70.20
37956;DHT22;23776;51.592;7.180;2022-09-06T06:58:39;19.50;69.50
37956;DHT22;23776;51.592;7.180;2022-09-06T07:01:05;19.60;71.40
37956;DHT22;23776;51.592;7.180;2022-09-06T07:03:31;19.70;68.80
37956;DHT22;23776;51.592;7.180;2022-09-06T07:05:56;19.70;66.60
37956;DHT22;23776;51.592;7.180;2022-09-06T07:08:22;19.90;64.20
37956;DHT22;23776;51.592;7.180;2022-09-06T07:10:47;19.90;61.60
37956;DHT22;23776;51.592;7.180;2022-09-06T07:13:13;20.00;60.40
37956;DHT22;23776;51.592;7.180;2022-09-06T07:15:39;20.10;57.60
37956;DHT22;23776;51.592;7.180;2022-09-06T07:18:04;20.10;50.40
37956;DHT22;23776;51.592;7.180;2022-09-06T07:20:31;20.20;41.50
37956;DHT22;23776;51.592;7.180;2022-09-06T07:23:00;20.40;39.90
37956;DHT22;23776;51.592;7.180;2022-09-06T07:25:26;20.40;39.80
37956;DHT22;23776;51.592;7.180;2022-09-06T07:28:00;20.50;34.00
37956;DHT22;23776;51.592;7.180;2022-09-06T07:30:27;20.60;20.40
37956;DHT22;23776;51.592;7.180;2022-09-06T07:32:53;20.70;15.60
37956;DHT22;23776;51.592;7.180;2022-09-06T07:35:18;20.80;12.50
37956;DHT22;23776;51.592;7.180;2022-09-06T07:37:58;20.90;10.00
37956;DHT22;23776;51.592;7.180;2022-09-06T07:40:26;21.00;5.10
37956;DHT22;23776;51.592;7.180;2022-09-06T07:42:55;21.10;4.50
37956;DHT22;23776;51.592;7.180;2022-09-06T07:45:20;21.20;2.80
37956;DHT22;23776;51.592;7.180;2022-09-06T07:47:53;21.30;1.00
37956;DHT22;23776;51.592;7.180;2022-09-06T07:50:18;21.40;1.00
37956;DHT22;23776;51.592;7.180;2022-09-06T07:52:44;21.40;1.00
37956;DHT22;23776;51.592;7.180;2022-09-06T07:55:10;21.50;1.00
37956;DHT22;23776;51.592;7.180;2022-09-06T07:57:35;21.70;1.00
37956;DHT22;23776;51.592;7.180;2022-09-06T08:00:03;21.80;1.00
37956;DHT22;23776;51.592;7.180;2022-09-06T08:02:29;21.90;1.00
37956;DHT22;23776;51.592;7.180;2022-09-06T08:04:56;22.00;1.00
37956;DHT22;23776;51.592;7.180;2022-09-06T08:07:21;22.10;1.00
37956;DHT22;23776;51.592;7.180;2022-09-06T08:09:49;22.10;1.00
37956;DHT22;23776;51.592;7.180;2022-09-06T08:12:14;22.30;1.00
37956;DHT22;23776;51.592;7.180;2022-09-06T08:14:40;22.40;1.00
37956;DHT22;23776;51.592;7.180;2022-09-06T08:17:06;22.50;99.90
37956;DHT22;23776;51.592;7.180;2022-09-06T08:19:31;22.60;99.90
37956;DHT22;23776;51.592;7.180;2022-09-06T08:21:58;22.70;98.10
37956;DHT22;23776;51.592;7.180;2022-09-06T08:24:24;22.90;58.80
37956;DHT22;23776;51.592;7.180;2022-09-06T08:26:50;23.00;99.90
37956;DHT22;23776;51.592;7.180;2022-09-06T08:29:16;23.10;28.90
37956;DHT22;23776;51.592;7.180;2022-09-06T08:31:44;23.20;99.90
37956;DHT22;23776;51.592;7.180;2022-09-06T08:34:09;23.40;99.90
37956;DHT22;23776;51.592;7.180;2022-09-06T08:36:39;23.50;1.00
37956;DHT22;23776;51.592;7.180;2022-09-06T08:39:07;23.70;1.00
37956;DHT22;23776;51.592;7.180;2022-09-06T08:47:01;24.00;1.00
37956;DHT22;23776;51.592;7.180;2022-09-06T08:49:32;24.10;99.90
37956;DHT22;23776;51.592;7.180;2022-09-06T08:55:48;24.40;99.90
37956;DHT22;23776;51.592;7.180;2022-09-06T08:58:20;24.40;99.90
37956;DHT22;23776;51.592;7.180;2022-09-06T09:01:24;24.50;1.00
37956;DHT22;23776;51.592;7.180;2022-09-06T09:03:43;24.60;1.00
37956;DHT22;23776;51.592;7.180;2022-09-06T09:06:10;24.70;1.00
37956;DHT22;23776;51.592;7.180;2022-09-06T09:11:13;24.90;1.00
37956;DHT22;23776;51.592;7.180;2022-09-06T09:13:52;25.00;1.00
37956;DHT22;23776;51.592;7.180;2022-09-06T09:16:19;25.10;1.00
37956;DHT22;23776;51.592;7.180;2022-09-06T09:18:48;25.10;1.00
37956;DHT22;23776;51.592;7.180;2022-09-06T09:21:18;25.80;99.90
37956;DHT22;23776;51.592;7.180;2022-09-06T09:23:55;25.30;99.90
37956;DHT22;23776;51.592;7.180;2022-09-06T09:26:26;25.40;99.90
37956;DHT22;23776;51.592;7.180;2022-09-06T09:29:08;25.50;99.90
37956;DHT22;23776;51.592;7.180;2022-09-06T09:31:37;25.50;99.90
37956;DHT22;23776;51.592;7.180;2022-09-06T09:34:04;25.50;99.90
37956;DHT22;23776;51.592;7.180;2022-09-06T09:36:31;25.60;99.90
37956;DHT22;23776;51.592;7.180;2022-09-06T09:38:57;25.80;99.90
37956;DHT22;23776;51.592;7.180;2022-09-06T09:41:30;25.90;99.90
37956;DHT22;23776;51.592;7.180;2022-09-06T09:44:00;26.00;99.90
37956;DHT22;23776;51.592;7.180;2022-09-06T09:46:27;26.20;99.90
37956;DHT22;23776;51.592;7.180;2022-09-06T09:49:26;26.20;99.90
37956;DHT22;23776;51.592;7.180;2022-09-06T09:52:12;26.30;99.90
37956;DHT22;23776;51.592;7.180;2022-09-06T09:54:41;26.30;99.90
37956;DHT22;23776;51.592;7.180;2022-09-06T09:57:13;26.20;99.90
37956;DHT22;23776;51.592;7.180;2022-09-06T09:59:53;26.30;99.90
37956;DHT22;23776;51.592;7.180;2022-09-06T10:02:30;26.40;99.90
37956;DHT22;23776;51.592;7.180;2022-09-06T10:07:45;26.80;99.90
37956;DHT22;23776;51.592;7.180;2022-09-06T10:10:41;26.90;99.90
37956;DHT22;23776;51.592;7.180;2022-09-06T10:13:19;27.00;99.90
37956;DHT22;23776;51.592;7.180;2022-09-06T10:15:47;27.20;99.90
37956;DHT22;23776;51.592;7.180;2022-09-06T10:18:27;27.30;99.90
37956;DHT22;23776;51.592;7.180;2022-09-06T10:26:14;27.60;99.90
37956;DHT22;23776;51.592;7.180;2022-09-06T10:28:42;27.70;99.90
37956;DHT22;23776;51.592;7.180;2022-09-06T10:41:41;28.10;99.90
37956;DHT22;23776;51.592;7.180;2022-09-06T10:47:20;28.30;99.90
37956;DHT22;23776;51.592;7.180;2022-09-06T10:49:52;28.40;99.90
37956;DHT22;23776;51.592;7.180;2022-09-06T10:52:27;28.30;99.90
37956;DHT22;23776;51.592;7.180;2022-09-06T10:54:56;28.30;99.90
37956;DHT22;23776;51.592;7.180;2022-09-06T10:57:53;28.40;99.90
37956;DHT22;23776;51.592;7.180;2022-09-06T11:00:20;28.60;99.90
37956;DHT22;23776;51.592;7.180;2022-09-06T11:05:44;28.70;99.90
37956;DHT22;23776;51.592;7.180;2022-09-06T11:09:01;28.70;99.90
37956;DHT22;23776;51.592;7.180;2022-09-06T11:11:32;28.90;99.90
37956;DHT22;23776;51.592;7.180;2022-09-06T11:14:04;29.10;99.90
37956;DHT22;23776;51.592;7.180;2022-09-06T11:16:38;29.20;99.90
37956;DHT22;23776;51.592;7.180;2022-09-06T11:19:21;29.90;99.90
37956;DHT22;23776;51.592;7.180;2022-09-06T11:22:05;29.50;99.90
37956;DHT22;23776;51.592;7.180;2022-09-06T11:27:36;29.70;97.20
37956;DHT22;23776;51.592;7.180;2022-09-06T11:30:04;30.00;99.00
37956;DHT22;23776;51.592;7.180;2022-09-06T11:32:41;30.10;95.60
37956;DHT22;23776;51.592;7.180;2022-09-06T11:35:27;30.10;93.20
37956;DHT22;23776;51.592;7.180;2022-09-06T11:38:00;30.30;93.00
37956;DHT22;23776;51.592;7.180;2022-09-06T11:40:41;30.50;90.50
37956;DHT22;23776;51.592;7.180;2022-09-06T11:43:39;31.10;89.80
37956;DHT22;23776;51.592;7.180;2022-09-06T11:46:02;32.00;90.60
37956;DHT22;23776;51.592;7.180;2022-09-06T11:48:29;32.80;84.10
37956;DHT22;23776;51.592;7.180;2022-09-06T11:53:34;34.30;72.30
37956;DHT22;23776;51.592;7.180;2022-09-06T11:56:29;34.90;64.60
37956;DHT22;23776;51.592;7.180;2022-09-06T11:59:00;34.60;54.90
37956;DHT22;23776;51.592;7.180;2022-09-06T12:08:54;34.70;48.50
37956;DHT22;23776;51.592;7.180;2022-09-06T12:11:44;33.20;43.60
37956;DHT22;23776;51.592;7.180;2022-09-06T12:14:30;33.50;45.70
37956;DHT22;23776;51.592;7.180;2022-09-06T12:19:52;33.50;43.30
37956;DHT22;23776;51.592;7.180;2022-09-06T12:25:02;33.60;44.10
37956;DHT22;23776;51.592;7.180;2022-09-06T12:27:38;33.60;42.50
37956;DHT22;23776;51.592;7.180;2022-09-06T12:30:36;34.20;43.70
37956;DHT22;23776;51.592;7.180;2022-09-06T12:33:12;35.30;43.30
37956;DHT22;23776;51.592;7.180;2022-09-06T12:35:39;36.40;43.30
37956;DHT22;23776;51.592;7.180;2022-09-06T12:38:06;37.20;42.70
37956;DHT22;23776;51.592;7.180;2022-09-06T12:40:47;38.00;40.20
37956;DHT22;23776;51.592;7.180;2022-09-06T12:43:16;38.30;37.70
37956;DHT22;23776;51.592;7.180;2022-09-06T12:45:44;38.80;36.30
37956;DHT22;23776;51.592;7.180;2022-09-06T12:48:23;38.90;34.00
37956;DHT22;23776;51.592;7.180;2022-09-06T12:51:00;38.60;31.30
37956;DHT22;23776;51.592;7.180;2022-09-06T12:53:26;37.40;28.10
37956;DHT22;23776;51.592;7.180;2022-09-06T12:56:09;37.00;27.40
37956;DHT22;23776;51.592;7.180;2022-09-06T12:58:38;36.90;27.50
37956;DHT22;23776;51.592;7.180;2022-09-06T13:01:15;36.90;26.70
37956;DHT22;23776;51.592;7.180;2022-09-06T13:06:21;37.80;27.30
37956;DHT22;23776;51.592;7.180;2022-09-06T13:08:52;38.50;28.10
37956;DHT22;23776;51.592;7.180;2022-09-06T13:11:31;38.20;25.90
37956;DHT22;23776;51.592;7.180;2022-09-06T13:13:59;37.50;24.70
37956;DHT22;23776;51.592;7.180;2022-09-06T13:16:31;37.50;25.00
37956;DHT22;23776;51.592;7.180;2022-09-06T13:21:54;37.60;24.40
37956;DHT22;23776;51.592;7.180;2022-09-06T13:26:50;38.70;25.30
37956;DHT22;23776;51.592;7.180;2022-09-06T13:32:11;38.90;24.10
37956;DHT22;23776;51.592;7.180;2022-09-06T13:34:48;39.30;24.70
37956;DHT22;23776;51.592;7.180;2022-09-06T13:37:16;39.20;24.20
37956;DHT22;23776;51.592;7.180;2022-09-06T13:39:42;38.90;23.40
37956;DHT22;23776;51.592;7.180;2022-09-06T13:42:29;37.60;21.70
37956;DHT22;23776;51.592;7.180;2022-09-06T13:44:55;36.50;20.20
37956;DHT22;23776;51.592;7.180;2022-09-06T13:47:25;36.60;20.60
37956;DHT22;23776;51.592;7.180;2022-09-06T13:49:51;37.30;21.40
37956;DHT22;23776;51.592;7.180;2022-09-06T13:52:19;38.20;31.50
37956;DHT22;23776;51.592;7.180;2022-09-06T13:54:45;38.40;22.70
37956;DHT22;23776;51.592;7.180;2022-09-06T13:57:12;38.50;22.00
37956;DHT22;23776;51.592;7.180;2022-09-06T13:59:38;38.20;21.10
37956;DHT22;23776;51.592;7.180;2022-09-06T14:02:07;38.70;21.40
37956;DHT22;23776;51.592;7.180;2022-09-06T14:04:34;38.80;21.00
37956;DHT22;23776;51.592;7.180;2022-09-06T14:07:01;39.30;21.70
37956;DHT22;23776;51.592;7.180;2022-09-06T14:09:27;39.90;22.00
37956;DHT22;23776;51.592;7.180;2022-09-06T14:11:52;39.70;21.20
37956;DHT22;23776;51.592;7.180;2022-09-06T14:14:18;40.20;21.90
37956;DHT22;23776;51.592;7.180;2022-09-06T14:16:45;40.40;21.50
37956;DHT22;23776;51.592;7.180;2022-09-06T14:19:12;40.70;21.90
37956;DHT22;23776;51.592;7.180;2022-09-06T14:21:38;39.90;20.00
37956;DHT22;23776;51.592;7.180;2022-09-06T14:24:04;40.20;21.10
37956;DHT22;23776;51.592;7.180;2022-09-06T14:26:30;40.40;21.40
37956;DHT22;23776;51.592;7.180;2022-09-06T14:28:55;40.70;20.30
37956;DHT22;23776;51.592;7.180;2022-09-06T14:31:24;40.90;20.90
37956;DHT22;23776;51.592;7.180;2022-09-06T14:33:54;41.30;19.20
37956;DHT22;23776;51.592;7.180;2022-09-06T14:36:23;41.80;21.00
37956;DHT22;23776;51.592;7.180;2022-09-06T14:38:49;42.60;21.40
37956;DHT22;23776;51.592;7.180;2022-09-06T14:41:16;42.40;21.80
37956;DHT22;23776;51.592;7.180;2022-09-06T14:43:47;42.40;21.40
37956;DHT22;23776;51.592;7.180;2022-09-06T14:46:14;42.40;29.40
37956;DHT22;23776;51.592;7.180;2022-09-06T14:48:41;42.50;21.30
37956;DHT22;23776;51.592;7.180;2022-09-06T14:53:41;43.00;18.90
37956;DHT22;23776;51.592;7.180;2022-09-06T14:56:07;43.30;18.60
37956;DHT22;23776;51.592;7.180;2022-09-06T14:58:35;42.40;16.80
37956;DHT22;23776;51.592;7.180;2022-09-06T15:03:32;42.50;15.40
37956;DHT22;23776;51.592;7.180;2022-09-06T15:05:57;42.20;15.40
37956;DHT22;23776;51.592;7.180;2022-09-06T15:08:23;42.80;15.20
37956;DHT22;23776;51.592;7.180;2022-09-06T15:10:53;43.60;15.60
37956;DHT22;23776;51.592;7.180;2022-09-06T15:13:18;44.10;16.20
37956;DHT22;23776;51.592;7.180;2022-09-06T15:15:44;44.10;15.80
37956;DHT22;23776;51.592;7.180;2022-09-06T15:18:09;44.70;16.30
37956;DHT22;23776;51.592;7.180;2022-09-06T15:20:35;45.30;16.00
37956;DHT22;23776;51.592;7.180;2022-09-06T15:23:01;45.80;16.50
37956;DHT22;23776;51.592;7.180;2022-09-06T15:25:28;46.20;16.40
37956;DHT22;23776;51.592;7.180;2022-09-06T15:27:54;46.50;16.60
37956;DHT22;23776;51.592;7.180;2022-09-06T15:30:19;46.80;16.00
37956;DHT22;23776;51.592;7.180;2022-09-06T15:32:45;46.80;15.00
37956;DHT22;23776;51.592;7.180;2022-09-06T15:35:10;46.50;14.60
37956;DHT22;23776;51.592;7.180;2022-09-06T15:37:36;46.30;14.40
37956;DHT22;23776;51.592;7.180;2022-09-06T15:40:02;46.20;13.50
37956;DHT22;23776;51.592;7.180;2022-09-06T15:42:27;46.20;13.50
37956;DHT22;23776;51.592;7.180;2022-09-06T15:44:53;46.30;13.60
37956;DHT22;23776;51.592;7.180;2022-09-06T15:47:19;46.20;12.50
37956;DHT22;23776;51.592;7.180;2022-09-06T15:49:45;46.50;13.50
37956;DHT22;23776;51.592;7.180;2022-09-06T15:52:10;46.90;12.90
37956;DHT22;23776;51.592;7.180;2022-09-06T15:54:36;46.90;12.10
37956;DHT22;23776;51.592;7.180;2022-09-06T15:57:21;47.00;12.90
37956;DHT22;23776;51.592;7.180;2022-09-06T15:59:46;47.00;14.00
37956;DHT22;23776;51.592;7.180;2022-09-06T16:02:12;47.00;13.80
37956;DHT22;23776;51.592;7.180;2022-09-06T16:04:38;46.70;12.80
37956;DHT22;23776;51.592;7.180;2022-09-06T16:07:04;46.80;12.10
37956;DHT22;23776;51.592;7.180;2022-09-06T16:09:31;46.90;12.90
37956;DHT22;23776;51.592;7.180;2022-09-06T16:11:56;47.20;12.10
37956;DHT22;23776;51.592;7.180;2022-09-06T16:14:22;47.40;11.80
37956;DHT22;23776;51.592;7.180;2022-09-06T16:16:47;47.70;12.10
37956;DHT22;23776;51.592;7.180;2022-09-06T16:19:14;47.80;11.80
37956;DHT22;23776;51.592;7.180;2022-09-06T16:21:41;47.60;11.80
37956;DHT22;23776;51.592;7.180;2022-09-06T16:24:10;47.40;11.60
37956;DHT22;23776;51.592;7.180;2022-09-06T16:26:38;47.00;11.00
37956;DHT22;23776;51.592;7.180;2022-09-06T16:29:05;47.60;10.70
37956;DHT22;23776;51.592;7.180;2022-09-06T16:31:32;47.50;11.70
37956;DHT22;23776;51.592;7.180;2022-09-06T16:34:00;47.50;11.20
37956;DHT22;23776;51.592;7.180;2022-09-06T16:36:27;47.50;9.40
37956;DHT22;23776;51.592;7.180;2022-09-06T16:38:53;47.20;9.20
37956;DHT22;23776;51.592;7.180;2022-09-06T16:41:31;46.90;9.50
37956;DHT22;23776;51.592;7.180;2022-09-06T16:43:58;46.60;8.80
37956;DHT22;23776;51.592;7.180;2022-09-06T16:46:25;46.00;8.80
37956;DHT22;23776;51.592;7.180;2022-09-06T16:48:55;45.70;9.40
37956;DHT22;23776;51.592;7.180;2022-09-06T16:51:22;45.10;9.40
37956;DHT22;23776;51.592;7.180;2022-09-06T16:53:49;43.70;8.20
37956;DHT22;23776;51.592;7.180;2022-09-06T16:56:18;41.90;7.20
37956;DHT22;23776;51.592;7.180;2022-09-06T16:58:55;40.10;5.30
37956;DHT22;23776;51.592;7.180;2022-09-06T17:01:22;38.70;4.60
37956;DHT22;23776;51.592;7.180;2022-09-06T17:03:49;37.40;3.60
37956;DHT22;23776;51.592;7.180;2022-09-06T17:06:15;36.60;3.40
37956;DHT22;23776;51.592;7.180;2022-09-06T17:08:41;35.70;3.20
37956;DHT22;23776;51.592;7.180;2022-09-06T17:11:10;35.00;8.70
37956;DHT22;23776;51.592;7.180;2022-09-06T17:13:36;34.40;1.50
37956;DHT22;23776;51.592;7.180;2022-09-06T17:16:02;33.80;1.00
37956;DHT22;23776;51.592;7.180;2022-09-06T17:18:47;33.30;1.00
37956;DHT22;23776;51.592;7.180;2022-09-06T17:21:13;32.90;1.00
37956;DHT22;23776;51.592;7.180;2022-09-06T17:23:38;32.50;1.00
37956;DHT22;23776;51.592;7.180;2022-09-06T17:26:05;32.20;1.80
37956;DHT22;23776;51.592;7.180;2022-09-06T17:28:35;31.90;3.00
37956;DHT22;23776;51.592;7.180;2022-09-06T17:31:04;31.60;2.70
37956;DHT22;23776;51.592;7.180;2022-09-06T17:33:32;31.30;3.50
37956;DHT22;23776;51.592;7.180;2022-09-06T17:36:09;31.10;4.00